Time;durP1;ratioP1;P1;durP2;ratioP2;P2;SDS_P1;SDS_P2;PMS_P1;PMS_P2;Temp;Humidity;BMP_temperature;BMP_pressure;BME280_temperature;BME280_humidity;BME280_pressure;Samples;Min_cycle;Max_cycle;Signal;HPM_P1;HPM_P2
2024/03/31 00:03:13;;;;;;;29.35;8.65;;;;;;;;;;10101901;28;20090;-67
2024/03/31 00:08:07;;;;;;;17.52;7.93;;;;;;;;;;10097111;28;20073;-66
2024/03/31 00:13:00;;;;;;;26.08;7.10;;;;;;;;;;10096376;28;20032;-66
2024/03/31 00:17:52;;;;;;;12.93;5.10;;;;;;;;;;10095853;28;20139;-66
2024/03/31 00:22:46;;;;;;;16.58;6.38;;;;;;;;;;10100593;28;20049;-66
2024/03/31 00:27:38;;;;;;;26.00;8.52;;;;;;;;;;10104181;28;20167;-66
2024/03/31 00:32:30;;;;;;;19.38;5.68;;;;;;;;;;10087264;28;20075;-66
2024/03/31 00:37:24;;;;;;;23.70;7.00;;;;;;;;;;10104425;28;20060;-66
2024/03/31 00:42:16;;;;;;;28.77;5.70;;;;;;;;;;10103884;28;20500;-66
2024/03/31 00:47:08;;;;;;;27.33;6.72;;;;;;;;;;10103997;28;20085;-66
2024/03/31 00:52:00;;;;;;;22.90;7.30;;;;;;;;;;10087165;28;20412;-66
2024/03/31 00:56:52;;;;;;;24.90;10.07;;;;;;;;;;10108865;28;20057;-66
2024/03/31 01:01:46;;;;;;;43.42;10.35;;;;;;;;;;10111380;28;20068;-66
2024/03/31 01:06:40;;;;;;;45.67;12.77;;;;;;;;;;10111315;28;20095;-67
2024/03/31 01:11:32;;;;;;;35.70;14.20;;;;;;;;;;10088832;28;20421;-66
2024/03/31 01:16:26;;;;;;;44.85;16.42;;;;;;;;;;10111054;28;20056;-67
2024/03/31 01:21:19;;;;;;;37.05;13.38;;;;;;;;;;10110873;28;20489;-67
2024/03/31 01:26:13;;;;;;;35.65;10.80;;;;;;;;;;10126755;28;20037;-67
2024/03/31 01:31:05;;;;;;;31.30;10.05;;;;;;;;;;10110492;28;20041;-67
2024/03/31 01:36:05;;;;;;;33.83;9.85;;;;;;;;;;10110120;28;20094;-67
2024/03/31 01:40:57;;;;;;;31.25;8.93;;;;;;;;;;10110118;28;20493;-67
2024/03/31 01:45:51;;;;;;;25.27;8.57;;;;;;;;;;10109841;28;20045;-67
2024/03/31 01:50:43;;;;;;;24.70;6.30;;;;;;;;;;10109444;28;20139;-67
2024/03/31 01:55:35;;;;;;;18.17;6.45;;;;;;;;;;10109451;28;20122;-67
2024/03/31 02:00:28;;;;;;;13.27;4.50;;;;;;;;;;10092486;28;20405;-67
2024/03/31 02:05:20;;;;;;;16.35;6.72;;;;;;;;;;10092043;28;20067;-67
2024/03/31 02:10:12;;;;;;;32.33;19.60;;;;;;;;;;10108404;28;20049;-67
2024/03/31 02:15:06;;;;;;;26.45;6.10;;;;;;;;;;10105535;28;20102;-67
2024/03/31 02:19:58;;;;;;;11.40;3.75;;;;;;;;;;10108526;28;20045;-66
2024/03/31 02:24:51;;;;;;;22.67;6.75;;;;;;;;;;10108229;28;20443;-67
2024/03/31 02:29:43;;;;;;;28.42;17.20;;;;;;;;;;10085456;28;20045;-65
2024/03/31 02:34:36;;;;;;;21.67;9.50;;;;;;;;;;10087256;28;20124;-67
2024/03/31 02:39:28;;;;;;;39.97;19.02;;;;;;;;;;10070837;28;20546;-66
2024/03/31 02:44:20;;;;;;;20.83;8.55;;;;;;;;;;10091455;28;20052;-66
2024/03/31 02:49:15;;;;;;;99.93;62.00;;;;;;;;;;10075404;28;20052;-66
2024/03/31 02:54:07;;;;;;;25.33;9.07;;;;;;;;;;10086816;28;20497;-67
2024/03/31 02:59:00;;;;;;;22.02;12.30;;;;;;;;;;10087776;28;20090;-66
2024/03/31 03:03:53;;;;;;;23.55;11.80;;;;;;;;;;10075318;28;20532;-67
2024/03/31 03:08:45;;;;;;;15.38;5.65;;;;;;;;;;10071062;28;20049;-67
2024/03/31 03:13:43;;;;;;;27.38;9.50;;;;;;;;;;10069174;28;20072;-66
2024/03/31 03:18:37;;;;;;;54.72;25.63;;;;;;;;;;10083637;28;20099;-66
2024/03/31 03:23:29;;;;;;;30.67;11.30;;;;;;;;;;10066555;28;20460;-67
2024/03/31 03:28:21;;;;;;;26.95;11.55;;;;;;;;;;10079399;28;20053;-66
2024/03/31 03:33:12;;;;;;;31.50;12.30;;;;;;;;;;10074139;28;20049;-66
2024/03/31 03:38:05;;;;;;;24.23;9.95;;;;;;;;;;10070518;28;20075;-65
2024/03/31 03:42:57;;;;;;;22.77;5.78;;;;;;;;;;10066577;28;20107;-66
2024/03/31 03:47:49;;;;;;;41.30;12.93;;;;;;;;;;10090512;28;20049;-69
2024/03/31 03:52:42;;;;;;;41.80;16.85;;;;;;;;;;10063535;28;20505;-65
2024/03/31 03:57:33;;;;;;;22.13;9.25;;;;;;;;;;10069745;28;20042;-66
2024/03/31 04:02:25;;;;;;;37.55;21.50;;;;;;;;;;10050901;28;20107;-66
2024/03/31 04:07:17;;;;;;;21.67;8.18;;;;;;;;;;10073383;28;20065;-66
2024/03/31 04:12:10;;;;;;;32.78;8.88;;;;;;;;;;10074925;28;20040;-66
2024/03/31 04:17:03;;;;;;;34.55;13.70;;;;;;;;;;10089667;28;20084;-66
2024/03/31 04:21:57;;;;;;;34.65;11.90;;;;;;;;;;10061614;28;20469;-66
2024/03/31 04:26:49;;;;;;;46.47;16.10;;;;;;;;;;10071620;28;20053;-66
2024/03/31 04:31:55;;;;;;;111.50;60.55;;;;;;;;;;10091180;28;20041;-68
2024/03/31 04:36:51;;;;;;;123.05;71.45;;;;;;;;;;10066001;28;20057;-66
2024/03/31 04:41:47;;;;;;;41.20;22.27;;;;;;;;;;10078463;28;20088;-66
2024/03/31 04:46:40;;;;;;;31.58;14.45;;;;;;;;;;10074063;28;20059;-66
2024/03/31 04:51:31;;;;;;;47.45;17.25;;;;;;;;;;10065034;28;20077;-67
2024/03/31 04:56:24;;;;;;;42.70;13.35;;;;;;;;;;10088212;28;20049;-66
2024/03/31 05:01:16;;;;;;;59.78;22.20;;;;;;;;;;10081920;28;20132;-66
2024/03/31 05:06:10;;;;;;;46.40;21.05;;;;;;;;;;10079136;28;20064;-66
2024/03/31 05:11:03;;;;;;;51.42;16.02;;;;;;;;;;10086089;28;20508;-65
2024/03/31 05:16:03;;;;;;;40.38;18.38;;;;;;;;;;10079302;28;20077;-66
2024/03/31 05:20:59;;;;;;;49.30;15.43;;;;;;;;;;10069263;28;20397;-68
2024/03/31 05:25:51;;;;;;;35.97;12.77;;;;;;;;;;10084080;28;20510;-66
2024/03/31 05:30:45;;;;;;;75.82;36.67;;;;;;;;;;10064240;28;20099;-66
2024/03/31 05:35:37;;;;;;;50.65;15.68;;;;;;;;;;10076963;28;20057;-66
2024/03/31 05:40:29;;;;;;;44.65;16.38;;;;;;;;;;10096441;28;20070;-66
2024/03/31 05:45:21;;;;;;;47.53;15.48;;;;;;;;;;10083069;28;20099;-66
2024/03/31 05:50:14;;;;;;;51.63;15.48;;;;;;;;;;10094080;28;20055;-66
2024/03/31 05:55:08;;;;;;;72.13;18.58;;;;;;;;;;10074686;28;20102;-66
2024/03/31 06:00:03;;;;;;;69.60;18.00;;;;;;;;;;10081358;28;20474;-66
2024/03/31 06:05:06;;;;;;;76.25;19.73;;;;;;;;;;10095866;28;20049;-67
2024/03/31 06:09:58;;;;;;;83.72;22.05;;;;;;;;;;10076340;28;20069;-66
2024/03/31 06:14:51;;;;;;;50.40;14.80;;;;;;;;;;10091609;28;20494;-67
2024/03/31 06:19:43;;;;;;;47.58;15.25;;;;;;;;;;10066482;28;20052;-66
2024/03/31 06:24:35;;;;;;;72.90;17.27;;;;;;;;;;10079025;28;20604;-66
2024/03/31 06:29:28;;;;;;;68.97;17.77;;;;;;;;;;10073085;28;20045;-68
2024/03/31 06:34:20;;;;;;;111.53;47.60;;;;;;;;;;10093303;28;20045;-66
2024/03/31 06:39:12;;;;;;;80.20;21.92;;;;;;;;;;10089211;28;20045;-66
2024/03/31 06:44:05;;;;;;;81.63;18.05;;;;;;;;;;10097115;28;20091;-67
2024/03/31 06:48:58;;;;;;;81.93;21.60;;;;;;;;;;10075873;28;20056;-66
2024/03/31 06:53:51;;;;;;;91.60;20.83;;;;;;;;;;10099116;28;20079;-67
2024/03/31 06:58:44;;;;;;;84.90;20.33;;;;;;;;;;10072751;28;20056;-66
2024/03/31 07:03:37;;;;;;;92.53;22.77;;;;;;;;;;10100142;28;20049;-67
2024/03/31 07:08:29;;;;;;;72.82;26.20;;;;;;;;;;10078298;28;20471;-65
2024/03/31 07:13:21;;;;;;;68.72;23.02;;;;;;;;;;10078514;28;20466;-66
2024/03/31 07:18:13;;;;;;;70.40;21.27;;;;;;;;;;10069708;28;20409;-67
2024/03/31 07:23:07;;;;;;;58.80;17.75;;;;;;;;;;10090296;28;20072;-67
2024/03/31 07:28:00;;;;;;;46.78;14.20;;;;;;;;;;10081857;28;20041;-66
2024/03/31 07:32:53;;;;;;;40.22;15.00;;;;;;;;;;10098994;28;20049;-66
2024/03/31 07:37:47;;;;;;;44.47;20.08;;;;;;;;;;10079654;28;20099;-68
2024/03/31 07:42:40;;;;;;;35.08;18.73;;;;;;;;;;10093074;28;20045;-65
2024/03/31 07:47:33;;;;;;;47.25;18.25;;;;;;;;;;10092051;28;20493;-64
2024/03/31 07:52:26;;;;;;;38.30;17.40;;;;;;;;;;10098652;28;20155;-72
2024/03/31 07:57:18;;;;;;;46.45;20.55;;;;;;;;;;10089797;28;20038;-73
2024/03/31 08:02:11;;;;;;;40.60;20.55;;;;;;;;;;10081565;28;20136;-71
2024/03/31 08:07:03;;;;;;;41.65;19.50;;;;;;;;;;10099303;28;20405;-73
2024/03/31 08:11:57;;;;;;;46.08;21.75;;;;;;;;;;10100509;28;20115;-71
2024/03/31 08:16:49;;;;;;;63.17;22.92;;;;;;;;;;10099071;28;20136;-73
2024/03/31 08:21:42;;;;;;;33.60;20.85;;;;;;;;;;10103941;28;20146;-70
2024/03/31 08:26:35;;;;;;;48.25;24.45;;;;;;;;;;10099881;28;20520;-71
2024/03/31 08:31:27;;;;;;;70.15;29.27;;;;;;;;;;10096434;28;20048;-71
2024/03/31 08:36:20;;;;;;;65.72;26.33;;;;;;;;;;10089566;28;20088;-70
2024/03/31 08:41:17;;;;;;;52.38;26.05;;;;;;;;;;10092620;28;20068;-69
2024/03/31 08:46:09;;;;;;;42.92;22.83;;;;;;;;;;10100307;28;20049;-73
2024/03/31 08:51:02;;;;;;;47.20;20.98;;;;;;;;;;10100470;28;20056;-69
2024/03/31 08:55:59;;;;;;;49.55;21.45;;;;;;;;;;10087775;28;20048;-72
2024/03/31 09:00:56;;;;;;;63.78;19.38;;;;;;;;;;10085386;28;20055;-71
2024/03/31 09:05:48;;;;;;;54.63;21.95;;;;;;;;;;10082060;28;20053;-71
2024/03/31 09:10:41;;;;;;;49.20;21.00;;;;;;;;;;10082985;28;20144;-72
2024/03/31 09:15:34;;;;;;;53.85;23.70;;;;;;;;;;10090389;28;20057;-72
2024/03/31 09:20:26;;;;;;;38.03;19.15;;;;;;;;;;10082800;28;20103;-71
2024/03/31 09:25:19;;;;;;;63.03;19.75;;;;;;;;;;10088572;28;20077;-71
2024/03/31 09:30:11;;;;;;;59.70;22.60;;;;;;;;;;10094930;28;20045;-73
2024/03/31 09:35:05;;;;;;;48.95;19.63;;;;;;;;;;10091524;28;20049;-73
2024/03/31 09:39:58;;;;;;;49.58;21.38;;;;;;;;;;10090027;28;20041;-72
2024/03/31 09:44:51;;;;;;;66.22;22.70;;;;;;;;;;10085098;28;20167;-72
2024/03/31 09:49:50;;;;;;;48.85;21.80;;;;;;;;;;10076925;28;20144;-72
2024/03/31 09:54:53;;;;;;;51.67;22.30;;;;;;;;;;10092339;28;20056;-71
2024/03/31 09:59:54;;;;;;;50.50;21.55;;;;;;;;;;10068386;28;20068;-71
2024/03/31 10:04:57;;;;;;;66.57;22.23;;;;;;;;;;10087010;28;20065;-71
2024/03/31 10:09:50;;;;;;;56.03;19.08;;;;;;;;;;10089388;28;20051;-71
2024/03/31 10:14:45;;;;;;;41.60;11.35;;;;;;;;;;10094317;28;20560;-71
2024/03/31 10:19:38;;;;;;;56.72;25.85;;;;;;;;;;10091963;28;20057;-70
2024/03/31 10:24:33;;;;;;;36.42;12.30;;;;;;;;;;10087039;28;20455;-71
2024/03/31 10:29:26;;;;;;;33.10;9.48;;;;;;;;;;10057846;28;20060;-71
2024/03/31 10:34:24;;;;;;;23.10;5.20;;;;;;;;;;10083149;28;20064;-68
2024/03/31 10:39:21;;;;;;;20.77;4.03;;;;;;;;;;10093621;28;20080;-67
2024/03/31 10:44:15;;;;;;;25.75;6.97;;;;;;;;;;10103024;28;20366;-66
2024/03/31 10:49:07;;;;;;;29.38;5.90;;;;;;;;;;10085834;28;20156;-66
2024/03/31 10:54:31;;;;;;;35.28;5.10;;;;;;;;;;10097087;28;20386;-67
2024/03/31 10:59:27;;;;;;;22.92;5.32;;;;;;;;;;10103572;28;20037;-67
2024/03/31 11:04:20;;;;;;;29.65;7.30;;;;;;;;;;10104316;28;20044;-66
2024/03/31 11:09:12;;;;;;;22.60;7.07;;;;;;;;;;10102885;28;20101;-66
2024/03/31 11:14:06;;;;;;;25.48;6.53;;;;;;;;;;10097769;28;20044;-67
2024/03/31 11:18:59;;;;;;;28.30;5.57;;;;;;;;;;10099315;28;20057;-67
2024/03/31 11:23:51;;;;;;;29.92;6.55;;;;;;;;;;10100045;28;20048;-67
2024/03/31 11:28:44;;;;;;;31.83;7.63;;;;;;;;;;10094029;28;20515;-67
2024/03/31 11:33:36;;;;;;;36.35;11.35;;;;;;;;;;10071962;28;20502;-67
2024/03/31 11:38:29;;;;;;;46.33;11.55;;;;;;;;;;10069457;28;20055;-66
2024/03/31 11:43:22;;;;;;;41.00;17.77;;;;;;;;;;10091753;28;20065;-67
2024/03/31 11:48:14;;;;;;;46.08;12.85;;;;;;;;;;10087028;28;20114;-67
2024/03/31 11:53:07;;;;;;;49.30;16.70;;;;;;;;;;10081798;28;20053;-66
2024/03/31 11:58:01;;;;;;;46.83;14.15;;;;;;;;;;10089206;28;20504;-68
2024/03/31 12:03:04;;;;;;;46.00;14.60;;;;;;;;;;10090230;28;20515;-67
2024/03/31 12:07:57;;;;;;;51.75;13.43;;;;;;;;;;10070118;28;20049;-67
2024/03/31 12:12:51;;;;;;;40.33;13.90;;;;;;;;;;10090222;28;20084;-67
2024/03/31 12:17:43;;;;;;;55.78;13.10;;;;;;;;;;10085302;28;20110;-67
2024/03/31 12:22:40;;;;;;;40.33;11.18;;;;;;;;;;10087873;28;20051;-66
2024/03/31 12:27:32;;;;;;;40.72;11.25;;;;;;;;;;10086809;28;20048;-68
2024/03/31 12:32:25;;;;;;;50.83;12.98;;;;;;;;;;10085585;28;20047;-67
2024/03/31 12:37:18;;;;;;;48.00;10.45;;;;;;;;;;10073905;28;20052;-68
2024/03/31 12:42:16;;;;;;;36.30;7.28;;;;;;;;;;10082775;28;20095;-68
2024/03/31 12:47:08;;;;;;;;;;;;;;;;;;10084938;28;20133;-67
2024/03/31 12:52:06;;;;;;;50.05;10.52;;;;;;;;;;10089786;28;19920;-67
2024/03/31 12:56:59;;;;;;;35.88;10.50;;;;;;;;;;10085019;28;20037;-67
2024/03/31 13:01:50;;;;;;;35.08;8.95;;;;;;;;;;10087308;28;20506;-67
2024/03/31 13:06:43;;;;;;;41.53;9.43;;;;;;;;;;10087840;28;20045;-68
2024/03/31 13:11:35;;;;;;;36.33;10.82;;;;;;;;;;10065818;28;20045;-68
2024/03/31 13:16:27;;;;;;;42.35;10.32;;;;;;;;;;10086840;28;20053;-68
2024/03/31 13:21:19;;;;;;;42.85;9.07;;;;;;;;;;10088542;28;20180;-68
2024/03/31 13:26:12;;;;;;;43.25;11.00;;;;;;;;;;10088262;28;20136;-67
2024/03/31 13:31:04;;;;;;;45.63;11.38;;;;;;;;;;10093451;28;20128;-68
2024/03/31 13:35:57;;;;;;;30.88;9.13;;;;;;;;;;10083361;28;20080;-68
2024/03/31 13:40:50;;;;;;;48.92;9.60;;;;;;;;;;10086940;28;20052;-67
2024/03/31 13:45:42;;;;;;;52.45;10.10;;;;;;;;;;10099527;28;20033;-67
2024/03/31 13:50:34;;;;;;;44.83;11.02;;;;;;;;;;10085047;28;20058;-68
2024/03/31 13:55:27;;;;;;;41.83;8.23;;;;;;;;;;10097074;28;20144;-67
2024/03/31 14:00:20;;;;;;;37.13;8.38;;;;;;;;;;10089864;28;20063;-67
2024/03/31 14:05:13;;;;;;;40.75;7.88;;;;;;;;;;10090638;28;20063;-68
2024/03/31 14:10:08;;;;;;;48.35;10.73;;;;;;;;;;10086008;28;20052;-68
2024/03/31 14:15:00;;;;;;;38.45;10.23;;;;;;;;;;10091896;28;20056;-68
2024/03/31 14:19:52;;;;;;;39.42;9.43;;;;;;;;;;10092953;28;20080;-66
2024/03/31 14:24:45;;;;;;;29.88;8.15;;;;;;;;;;10091388;28;20041;-67
2024/03/31 14:29:38;;;;;;;39.47;10.23;;;;;;;;;;10086262;28;20069;-67
2024/03/31 14:34:30;;;;;;;40.00;9.95;;;;;;;;;;10076355;28;20054;-67
2024/03/31 14:39:25;;;;;;;36.10;9.15;;;;;;;;;;10086421;28;20045;-66
2024/03/31 14:44:17;;;;;;;46.65;11.00;;;;;;;;;;10091552;28;20056;-67
2024/03/31 14:49:09;;;;;;;33.67;9.98;;;;;;;;;;10071762;28;20053;-68
2024/03/31 14:54:01;;;;;;;33.55;7.90;;;;;;;;;;10085910;28;20051;-66
2024/03/31 14:58:54;;;;;;;35.70;6.68;;;;;;;;;;10086645;28;20056;-66
2024/03/31 15:03:46;;;;;;;36.90;6.97;;;;;;;;;;10101985;28;20107;-67
2024/03/31 15:08:38;;;;;;;36.95;8.52;;;;;;;;;;10088211;28;20038;-67
2024/03/31 15:13:31;;;;;;;54.03;10.50;;;;;;;;;;10090161;28;20448;-67
2024/03/31 15:18:24;;;;;;;46.63;8.60;;;;;;;;;;10088519;28;20421;-68
2024/03/31 15:23:16;;;;;;;40.35;9.60;;;;;;;;;;10084305;28;20072;-68
2024/03/31 15:28:09;;;;;;;45.03;8.65;;;;;;;;;;10089255;28;20064;-67
2024/03/31 15:33:02;;;;;;;44.85;9.18;;;;;;;;;;10090669;28;20041;-67
2024/03/31 15:37:54;;;;;;;66.32;10.98;;;;;;;;;;10075332;28;20041;-67
2024/03/31 15:42:46;;;;;;;52.38;10.10;;;;;;;;;;10083130;28;20421;-67
2024/03/31 15:47:39;;;;;;;63.97;10.85;;;;;;;;;;10079127;28;20127;-67
2024/03/31 15:52:31;;;;;;;39.80;8.55;;;;;;;;;;10084084;28;20497;-66
2024/03/31 15:57:24;;;;;;;51.10;10.50;;;;;;;;;;10089061;28;20038;-67
2024/03/31 16:02:20;;;;;;;61.20;10.85;;;;;;;;;;10093833;28;20080;-67
2024/03/31 16:07:13;;;;;;;83.35;12.90;;;;;;;;;;10084212;28;20421;-67
2024/03/31 16:12:06;;;;;;;44.30;9.77;;;;;;;;;;10083627;28;20517;-67
2024/03/31 16:16:59;;;;;;;75.35;12.52;;;;;;;;;;10069062;28;20049;-66
2024/03/31 16:21:51;;;;;;;52.17;10.57;;;;;;;;;;10094870;28;20049;-69
2024/03/31 16:26:44;;;;;;;66.93;12.75;;;;;;;;;;10089000;28;20037;-68
2024/03/31 16:31:36;;;;;;;61.63;13.52;;;;;;;;;;10099801;28;20414;-68
2024/03/31 16:36:28;;;;;;;42.20;8.43;;;;;;;;;;10100465;28;20055;-67
2024/03/31 16:41:20;;;;;;;39.47;10.35;;;;;;;;;;10093894;28;20041;-67
2024/03/31 16:46:12;;;;;;;45.88;9.95;;;;;;;;;;10089729;28;20401;-67
2024/03/31 16:51:05;;;;;;;31.92;8.20;;;;;;;;;;10084876;28;20493;-67
2024/03/31 16:55:57;;;;;;;52.28;12.98;;;;;;;;;;10099917;28;20041;-68
2024/03/31 17:00:53;;;;;;;39.22;11.15;;;;;;;;;;10103521;28;20461;-67
2024/03/31 17:05:46;;;;;;;53.70;9.65;;;;;;;;;;10088667;28;20485;-67
2024/03/31 17:10:39;;;;;;;40.50;11.52;;;;;;;;;;10103259;28;20060;-68
2024/03/31 17:15:31;;;;;;;49.50;9.95;;;;;;;;;;10103214;28;20134;-68
2024/03/31 17:20:25;;;;;;;41.17;9.63;;;;;;;;;;10103070;28;20508;-67
2024/03/31 17:25:17;;;;;;;41.42;9.85;;;;;;;;;;10102806;28;20060;-67
2024/03/31 17:30:10;;;;;;;39.22;9.32;;;;;;;;;;10089333;28;20049;-67
2024/03/31 17:35:04;;;;;;;40.65;10.57;;;;;;;;;;10098057;28;20042;-67
2024/03/31 17:39:57;;;;;;;51.03;10.05;;;;;;;;;;10102487;28;20120;-67
2024/03/31 17:44:50;;;;;;;54.90;10.43;;;;;;;;;;10101881;28;20045;-66
2024/03/31 17:49:42;;;;;;;52.28;9.90;;;;;;;;;;10105402;28;20052;-68
2024/03/31 17:54:37;;;;;;;61.25;14.45;;;;;;;;;;10100011;28;20091;-67
2024/03/31 17:59:29;;;;;;;39.33;7.35;;;;;;;;;;10107922;28;20398;-68
2024/03/31 18:04:23;;;;;;;40.13;9.20;;;;;;;;;;10096912;28;20049;-68
2024/03/31 18:09:16;;;;;;;40.08;7.57;;;;;;;;;;10097734;28;20045;-68
2024/03/31 18:14:09;;;;;;;45.72;9.48;;;;;;;;;;10098093;28;20053;-67
2024/03/31 18:19:02;;;;;;;46.65;7.55;;;;;;;;;;10111299;28;20127;-67
2024/03/31 18:23:56;;;;;;;46.15;12.18;;;;;;;;;;10096733;28;20056;-67
2024/03/31 18:28:49;;;;;;;56.58;14.02;;;;;;;;;;10091752;28;20049;-67
2024/03/31 18:33:43;;;;;;;53.83;11.07;;;;;;;;;;10090135;28;20103;-66
2024/03/31 18:38:36;;;;;;;56.95;12.60;;;;;;;;;;10084883;28;20421;-66
2024/03/31 18:43:30;;;;;;;42.20;8.80;;;;;;;;;;10095815;28;20053;-67
2024/03/31 18:48:23;;;;;;;44.10;13.00;;;;;;;;;;10083517;28;20524;-67
2024/03/31 18:53:15;;;;;;;46.60;10.07;;;;;;;;;;10096072;28;20053;-66
2024/03/31 18:58:08;;;;;;;58.22;18.20;;;;;;;;;;10084536;28;20061;-67
2024/03/31 19:03:00;;;;;;;64.82;19.40;;;;;;;;;;10093398;28;20071;-67
2024/03/31 19:07:53;;;;;;;62.60;15.05;;;;;;;;;;10080671;28;20421;-68
2024/03/31 19:12:46;;;;;;;40.63;11.68;;;;;;;;;;10096313;28;20413;-67
2024/03/31 19:17:38;;;;;;;52.83;13.05;;;;;;;;;;10083941;28;20175;-68
2024/03/31 19:22:30;;;;;;;48.55;10.88;;;;;;;;;;10088426;28;20068;-69
2024/03/31 19:27:43;;;;;;;56.83;9.80;;;;;;;;;;10076171;28;20045;-68
2024/03/31 19:32:35;;;;;;;59.17;19.50;;;;;;;;;;10074980;28;20773;-68
2024/03/31 19:37:28;;;;;;;54.38;11.35;;;;;;;;;;10092845;28;20402;-67
2024/03/31 19:42:22;;;;;;;55.25;13.95;;;;;;;;;;10076441;28;20798;-69
2024/03/31 19:47:15;;;;;;;55.28;16.98;;;;;;;;;;10087008;28;20099;-71
2024/03/31 19:52:08;;;;;;;49.08;13.18;;;;;;;;;;10085584;28;20429;-70
2024/03/31 19:57:00;;;;;;;67.22;14.02;;;;;;;;;;10081822;28;20045;-70
2024/03/31 20:01:52;;;;;;;53.42;12.95;;;;;;;;;;10097572;28;20057;-67
2024/03/31 20:06:45;;;;;;;47.60;9.27;;;;;;;;;;10095573;28;20511;-67
2024/03/31 20:11:38;;;;;;;43.13;12.48;;;;;;;;;;10100197;28;20115;-66
2024/03/31 20:16:32;;;;;;;52.50;9.68;;;;;;;;;;10091301;28;20045;-66
2024/03/31 20:21:25;;;;;;;46.45;9.98;;;;;;;;;;10100669;28;20083;-67
2024/03/31 20:26:17;;;;;;;45.53;10.20;;;;;;;;;;10096629;28;20053;-67
2024/03/31 20:31:09;;;;;;;57.15;12.13;;;;;;;;;;10090246;28;20052;-67
2024/03/31 20:36:02;;;;;;;43.85;10.07;;;;;;;;;;10093391;28;20650;-67
2024/03/31 20:41:01;;;;;;;49.60;14.27;;;;;;;;;;10091645;28;20045;-67
2024/03/31 20:45:58;;;;;;;55.67;13.95;;;;;;;;;;10085205;28;20065;-67
2024/03/31 20:51:07;;;;;;;57.42;14.35;;;;;;;;;;10089128;28;20054;-68
2024/03/31 20:56:13;;;;;;;47.97;11.10;;;;;;;;;;10086448;28;20075;-65
2024/03/31 21:01:20;;;;;;;47.25;10.02;;;;;;;;;;10089824;28;20511;-67
2024/03/31 21:06:18;;;;;;;47.08;10.77;;;;;;;;;;10101620;28;20095;-68
2024/03/31 21:11:12;;;;;;;43.75;9.90;;;;;;;;;;10097850;28;20520;-72
2024/03/31 21:16:28;;;;;;;60.45;11.65;;;;;;;;;;10087670;28;20064;-75
2024/03/31 21:21:40;;;;;;;57.17;11.10;;;;;;;;;;10088315;28;20061;-69
2024/03/31 21:26:35;;;;;;;54.13;10.82;;;;;;;;;;10076513;28;20065;-68
2024/03/31 21:31:28;;;;;;;47.05;13.15;;;;;;;;;;10093657;28;20045;-68
2024/03/31 21:36:20;;;;;;;42.47;10.73;;;;;;;;;;10104736;28;20075;-67
2024/03/31 21:41:13;;;;;;;44.92;10.23;;;;;;;;;;10109676;28;20485;-68
2024/03/31 21:46:06;;;;;;;42.25;9.73;;;;;;;;;;10107659;28;20050;-68
2024/03/31 21:51:01;;;;;;;46.38;12.60;;;;;;;;;;10108283;28;20056;-68
2024/03/31 21:56:00;;;;;;;47.33;11.30;;;;;;;;;;10107114;28;20045;-68
2024/03/31 22:00:52;;;;;;;57.47;11.43;;;;;;;;;;10106728;28;20056;-68
2024/03/31 22:05:45;;;;;;;47.45;9.50;;;;;;;;;;10091856;28;20041;-68
2024/03/31 22:10:38;;;;;;;67.43;13.48;;;;;;;;;;10090788;28;20053;-67
2024/03/31 22:15:30;;;;;;;58.25;12.10;;;;;;;;;;10099577;28;20045;-70
2024/03/31 22:20:23;;;;;;;50.58;12.05;;;;;;;;;;10085072;28;20132;-68
2024/03/31 22:25:17;;;;;;;46.83;10.85;;;;;;;;;;10082400;28;20049;-68
2024/03/31 22:30:10;;;;;;;47.72;11.68;;;;;;;;;;10089377;28;20045;-68
2024/03/31 22:35:04;;;;;;;53.13;10.55;;;;;;;;;;10080785;28;20047;-69
2024/03/31 22:39:57;;;;;;;54.42;11.60;;;;;;;;;;10091155;28;20042;-69
2024/03/31 22:44:49;;;;;;;55.83;12.95;;;;;;;;;;10088829;28;20570;-68
2024/03/31 22:49:42;;;;;;;57.15;12.60;;;;;;;;;;10085773;28;20128;-68
2024/03/31 22:54:34;;;;;;;57.45;11.50;;;;;;;;;;10085643;28;20148;-69
2024/03/31 22:59:26;;;;;;;66.72;16.90;;;;;;;;;;10089541;28;20052;-68
2024/03/31 23:04:18;;;;;;;62.92;18.48;;;;;;;;;;10086775;28;20061;-69
2024/03/31 23:09:11;;;;;;;62.80;19.88;;;;;;;;;;10095496;28;20063;-69
2024/03/31 23:14:04;;;;;;;66.85;22.20;;;;;;;;;;10098018;28;20046;-67
2024/03/31 23:18:56;;;;;;;70.38;26.30;;;;;;;;;;10091931;28;20053;-68
2024/03/31 23:23:48;;;;;;;63.53;22.40;;;;;;;;;;10092409;28;20401;-68
2024/03/31 23:28:41;;;;;;;72.25;25.52;;;;;;;;;;10101743;28;20503;-67
2024/03/31 23:33:33;;;;;;;78.35;26.52;;;;;;;;;;10100893;28;20071;-67
2024/03/31 23:38:25;;;;;;;75.18;24.25;;;;;;;;;;10080332;28;20480;-66
2024/03/31 23:43:18;;;;;;;62.70;18.92;;;;;;;;;;10109081;28;20057;-69
2024/03/31 23:48:10;;;;;;;75.43;25.60;;;;;;;;;;10095493;28;20075;-69
2024/03/31 23:53:03;;;;;;;59.17;19.83;;;;;;;;;;10090418;28;20073;-68
2024/03/31 23:57:55;;;;;;;77.57;17.65;;;;;;;;;;10093806;28;20057;-67
